15/5 a 26/5 - Inestable con lluvias y nevadas Patagonia, estable y templado/cálido C y N con lluvias y frío al final

Avatar de Usuario
fmpiscitelli
Mensajes: 4249
Registrado: Lun Ene 11, 2010 1:32 pm
Ubicación: Parque Saavedra, Ciudad de Bs As
Contactar:

Re: 15/5 a 26/5 - Inestable con lluvias y nevadas Patagonia, estable y templado/cálido C y N con lluvias y frío al final

Mensaje por fmpiscitelli » Dom May 24, 2020 5:07 pm

Córdoba con más de 28°C de amplitud térmica hoy.

Ojo la costa bonaerense ésta noche, 80/90 km/h tranquilamente
"La insolencia colectiva tiene un solo antidoto, la responsabilidad Individual"

Avatar de Usuario
Ale de Castelar
Mensajes: 25156
Registrado: Sab Mar 03, 2012 12:25 pm
Ubicación: Caballito

Re: 15/5 a 26/5 - Inestable con lluvias y nevadas Patagonia, estable y templado/cálido C y N con lluvias y frío al final

Mensaje por Ale de Castelar » Dom May 24, 2020 5:53 pm

Hermoso time lapse



Avatar de Usuario
Ale de Castelar
Mensajes: 25156
Registrado: Sab Mar 03, 2012 12:25 pm
Ubicación: Caballito

Re: 15/5 a 26/5 - Inestable con lluvias y nevadas Patagonia, estable y templado/cálido C y N con lluvias y frío al final

Mensaje por Ale de Castelar » Dom May 24, 2020 6:29 pm

Madryn ahora
Adjuntos
EYz4SYMWoAMf22F.jpeg

Avatar de Usuario
Diecha
Mensajes: 11037
Registrado: Jue Ago 25, 2011 9:31 pm
Ubicación: Lomas de Zamora

Re: 15/5 a 26/5 - Inestable con lluvias y nevadas Patagonia, estable y templado/cálido C y N con lluvias y frío al final

Mensaje por Diecha » Dom May 24, 2020 7:09 pm

Imagen

Imagen
Spoiler
Mostrar
Imagen
Imagen
Imagen
Imagen
Imagen
Imagen
Imagen


Avatar de Usuario
Diecha
Mensajes: 11037
Registrado: Jue Ago 25, 2011 9:31 pm
Ubicación: Lomas de Zamora

Re: 15/5 a 26/5 - Inestable con lluvias y nevadas Patagonia, estable y templado/cálido C y N con lluvias y frío al final

Mensaje por Diecha » Dom May 24, 2020 8:30 pm

- San Fernando 20 hs: SADF 242300Z 30011KT CAVOK 15/07 Q1009
- Aeroparque 20 hs: SABE 242300Z 31012KT CAVOK 15/05 Q1008
- Ezeiza 20 hs: SAEZ 242300Z 32012KT CAVOK 15/05 Q1007

Imagen
Imagen


Avatar de Usuario
Diecha
Mensajes: 11037
Registrado: Jue Ago 25, 2011 9:31 pm
Ubicación: Lomas de Zamora

Re: 15/5 a 26/5 - Inestable con lluvias y nevadas Patagonia, estable y templado/cálido C y N con lluvias y frío al final

Mensaje por Diecha » Dom May 24, 2020 8:36 pm

- Tandil 20 hs: SAZT 242300Z 29014KT CAVOK 12/06 Q1001
- Mar del Plata 20 hs: SAZM 242300Z 32018KT CAVOK 12/09 Q0998

Imagen

- Bahía Blanca 20 hs: SAZB 242300Z 20013KT CAVOK 14/08 Q1006

Imagen

Avatar de Usuario
Diecha
Mensajes: 11037
Registrado: Jue Ago 25, 2011 9:31 pm
Ubicación: Lomas de Zamora

Re: 15/5 a 26/5 - Inestable con lluvias y nevadas Patagonia, estable y templado/cálido C y N con lluvias y frío al final

Mensaje por Diecha » Dom May 24, 2020 9:26 pm

Última edición por Diecha el Dom May 24, 2020 9:37 pm, editado 1 vez en total.

Responder